Time;durP1;ratioP1;P1;durP2;ratioP2;P2;SDS_P1;SDS_P2;PMS_P1;PMS_P2;Temp;Humidity;BMP_temperature;BMP_pressure;BME280_temperature;BME280_humidity;BME280_pressure;Samples;Min_cycle;Max_cycle;Signal;HPM_P1;HPM_P2
2023/07/12 00:01:03;;;;;;;13.25;5.80;;;;;;;;;;5063459;28;20029;-63
2023/07/12 00:03:29;;;;;;;12.10;6.65;;;;;;;;;;5058014;28;20057;-63
2023/07/12 00:05:55;;;;;;;11.73;5.75;;;;;;;;;;5065394;28;20025;-64
2023/07/12 00:08:22;;;;;;;9.55;5.93;;;;;;;;;;5063775;28;20028;-63
2023/07/12 00:10:47;;;;;;;10.50;5.75;;;;;;;;;;5068974;28;20031;-64
2023/07/12 00:13:13;;;;;;;11.88;6.30;;;;;;;;;;5068301;28;20020;-64
2023/07/12 00:15:39;;;;;;;9.50;5.80;;;;;;;;;;5052113;28;20036;-62
2023/07/12 00:18:05;;;;;;;15.27;6.68;;;;;;;;;;5071398;28;20025;-63
2023/07/12 00:20:30;;;;;;;10.05;6.05;;;;;;;;;;5070812;28;20070;-63
2023/07/12 00:22:56;;;;;;;9.27;6.10;;;;;;;;;;5063717;28;20079;-64
2023/07/12 00:25:23;;;;;;;8.85;5.60;;;;;;;;;;5052974;28;20496;-63
2023/07/12 00:27:48;;;;;;;9.35;5.88;;;;;;;;;;5059920;28;20488;-65
2023/07/12 00:30:14;;;;;;;9.90;6.07;;;;;;;;;;5060871;28;20104;-65
2023/07/12 00:32:40;;;;;;;11.23;6.40;;;;;;;;;;5053695;28;20035;-63
2023/07/12 00:35:05;;;;;;;10.18;6.28;;;;;;;;;;5056112;28;20029;-65
2023/07/12 00:37:30;;;;;;;9.43;5.80;;;;;;;;;;5071985;28;20043;-63
2023/07/12 00:39:55;;;;;;;9.47;6.37;;;;;;;;;;5066505;28;20588;-65
2023/07/12 00:42:27;;;;;;;10.82;6.32;;;;;;;;;;5066086;28;20131;-60
2023/07/12 00:44:55;;;;;;;9.45;6.35;;;;;;;;;;5073747;28;20036;-64
2023/07/12 00:47:20;;;;;;;10.02;6.03;;;;;;;;;;5059939;28;20102;-62
2023/07/12 00:49:46;;;;;;;9.68;6.30;;;;;;;;;;5066796;28;20147;-64
2023/07/12 00:52:12;;;;;;;9.50;5.97;;;;;;;;;;5055920;28;20017;-64
2023/07/12 00:54:49;;;;;;;9.63;6.10;;;;;;;;;;5085690;28;20092;-64
2023/07/12 00:57:14;;;;;;;10.98;6.30;;;;;;;;;;5088345;28;20017;-61
2023/07/12 00:59:40;;;;;;;13.05;6.35;;;;;;;;;;5072844;28;20066;-64
2023/07/12 01:02:05;;;;;;;8.75;5.80;;;;;;;;;;5073481;28;20027;-62
2023/07/12 01:04:32;;;;;;;9.17;6.37;;;;;;;;;;5073189;28;20108;-64
2023/07/12 01:06:57;;;;;;;10.10;6.00;;;;;;;;;;5073612;28;20442;-64
2023/07/12 01:09:23;;;;;;;9.60;5.85;;;;;;;;;;5073262;28;20074;-63
2023/07/12 01:11:49;;;;;;;9.20;5.57;;;;;;;;;;5073638;28;20021;-64
2023/07/12 01:14:16;;;;;;;11.70;6.22;;;;;;;;;;5070871;28;20033;-64
2023/07/12 01:16:44;;;;;;;10.18;6.10;;;;;;;;;;5066359;28;20023;-64
2023/07/12 01:19:09;;;;;;;9.80;5.60;;;;;;;;;;5073077;28;20492;-62
2023/07/12 01:21:36;;;;;;;9.57;5.88;;;;;;;;;;5073354;28;20059;-63
2023/07/12 01:24:02;;;;;;;11.70;6.38;;;;;;;;;;5072423;28;20041;-65
2023/07/12 01:26:32;;;;;;;9.43;6.17;;;;;;;;;;5073483;28;20066;-64
2023/07/12 01:28:58;;;;;;;9.88;5.50;;;;;;;;;;5073102;28;20411;-65
2023/07/12 01:31:24;;;;;;;9.65;6.10;;;;;;;;;;5069179;28;20045;-62
2023/07/12 01:33:50;;;;;;;9.50;6.00;;;;;;;;;;5065091;28;20024;-63
2023/07/12 01:36:15;;;;;;;8.75;5.60;;;;;;;;;;5070343;28;20143;-62
2023/07/12 01:38:40;;;;;;;;;;;;;;;;;;5067843;28;20029;-60
2023/07/12 01:41:05;;;;;;;11.20;6.63;;;;;;;;;;5052818;28;19909;-64
2023/07/12 01:43:31;;;;;;;10.40;6.13;;;;;;;;;;5055422;28;20496;-64
2023/07/12 01:45:56;;;;;;;;;;;;;;;;;;5053481;28;20028;-64
2023/07/12 01:48:21;;;;;;;9.98;6.32;;;;;;;;;;5066002;28;19908;-65
2023/07/12 01:50:46;;;;;;;9.50;5.70;;;;;;;;;;5072787;28;20610;-64
2023/07/12 01:53:11;;;;;;;10.73;6.25;;;;;;;;;;5056351;28;20032;-63
2023/07/12 01:55:36;;;;;;;;;;;;;;;;;;5057425;28;20038;-64
2023/07/12 01:58:02;;;;;;;10.52;6.30;;;;;;;;;;5060173;28;19935;-64
2023/07/12 02:00:27;;;;;;;;;;;;;;;;;;5056506;28;20009;-62
2023/07/12 02:02:52;;;;;;;10.38;6.03;;;;;;;;;;5052084;28;19908;-62
2023/07/12 02:05:18;;;;;;;;;;;;;;;;;;5062779;28;20398;-63
2023/07/12 02:07:43;;;;;;;11.45;6.15;;;;;;;;;;5069562;28;19904;-64
2023/07/12 02:10:08;;;;;;;;;;;;;;;;;;5053417;28;20070;-63
2023/07/12 02:12:33;;;;;;;9.75;5.97;;;;;;;;;;5054612;28;20424;-63
2023/07/12 02:14:58;;;;;;;11.05;6.03;;;;;;;;;;5055735;28;20025;-63
2023/07/12 02:17:23;;;;;;;;;;;;;;;;;;5052285;28;20422;-62
2023/07/12 02:19:48;;;;;;;9.38;5.88;;;;;;;;;;5064359;28;19958;-63
2023/07/12 02:22:14;;;;;;;;;;;;;;;;;;5072464;28;20491;-64
2023/07/12 02:24:39;;;;;;;9.90;5.80;;;;;;;;;;5074169;28;19904;-65
2023/07/12 02:27:04;;;;;;;;;;;;;;;;;;5079709;28;20020;-63
2023/07/12 02:29:29;;;;;;;10.07;6.47;;;;;;;;;;5072196;28;19950;-64
2023/07/12 02:31:54;;;;;;;;;;;;;;;;;;5074648;28;20032;-63
2023/07/12 02:34:19;;;;;;;10.57;6.40;;;;;;;;;;5072965;28;19916;-65
2023/07/12 02:36:44;;;;;;;;;;;;;;;;;;5075775;28;20010;-62
2023/07/12 02:39:09;;;;;;;11.05;6.80;;;;;;;;;;5072263;28;19912;-64
2023/07/12 02:41:34;;;;;;;;;;;;;;;;;;5072338;28;20028;-64
2023/07/12 02:43:59;;;;;;;11.70;7.00;;;;;;;;;;5069770;28;19905;-66
2023/07/12 02:46:25;;;;;;;;;;;;;;;;;;5071870;28;20032;-64
2023/07/12 02:48:50;;;;;;;10.05;6.50;;;;;;;;;;5069530;28;19931;-63
2023/07/12 02:51:15;;;;;;;;;;;;;;;;;;5057509;28;20021;-64
2023/07/12 02:53:40;;;;;;;11.13;6.28;;;;;;;;;;5067350;28;20376;-63
2023/07/12 02:56:05;;;;;;;;;;;;;;;;;;5071337;28;20025;-63
2023/07/12 02:58:30;;;;;;;9.75;5.88;;;;;;;;;;5066744;28;19908;-62
2023/07/12 03:00:56;;;;;;;;;;;;;;;;;;5057910;28;20503;-62
2023/07/12 03:03:21;;;;;;;9.95;5.90;;;;;;;;;;5053735;28;19919;-63
2023/07/12 03:05:47;;;;;;;;;;;;;;;;;;5068438;28;20009;-61
2023/07/12 03:08:12;;;;;;;10.68;5.68;;;;;;;;;;5067140;28;20378;-64
2023/07/12 03:10:37;;;;;;;10.80;6.07;;;;;;;;;;5071261;28;20027;-64
2023/07/12 03:13:02;;;;;;;;;;;;;;;;;;5071149;28;20035;-63
2023/07/12 03:15:27;;;;;;;9.88;6.03;;;;;;;;;;5069052;28;19916;-63
2023/07/12 03:17:52;;;;;;;;;;;;;;;;;;5057057;28;20029;-63
2023/07/12 03:20:18;;;;;;;10.27;5.18;;;;;;;;;;5053179;28;19909;-63
2023/07/12 03:22:43;;;;;;;;;;;;;;;;;;5069632;28;20513;-63
2023/07/12 03:25:08;;;;;;;9.00;5.10;;;;;;;;;;5070819;28;19905;-63
2023/07/12 03:27:33;;;;;;;;;;;;;;;;;;5071870;28;20520;-63
2023/07/12 03:29:58;;;;;;;7.40;4.40;;;;;;;;;;5071205;28;19912;-63
2023/07/12 03:32:23;;;;;;;;;;;;;;;;;;5071128;28;20063;-62
2023/07/12 03:34:49;;;;;;;9.05;4.90;;;;;;;;;;5070714;28;19912;-63
2023/07/12 03:37:14;;;;;;;10.18;6.15;;;;;;;;;;5069412;28;20013;-62
2023/07/12 03:39:39;;;;;;;9.43;5.38;;;;;;;;;;5070994;28;20078;-63
2023/07/12 03:42:04;;;;;;;;;;;;;;;;;;5071557;28;20518;-61
2023/07/12 03:44:29;;;;;;;9.02;5.22;;;;;;;;;;5070470;28;19987;-61
2023/07/12 03:46:54;;;;;;;;;;;;;;;;;;5071413;28;20035;-63
2023/07/12 03:49:20;;;;;;;9.15;5.05;;;;;;;;;;5070823;28;19904;-62
2023/07/12 03:51:45;;;;;;;;;;;;;;;;;;5070737;28;20063;-63
2023/07/12 03:54:10;;;;;;;8.38;5.00;;;;;;;;;;5062768;28;19917;-63
2023/07/12 03:56:35;;;;;;;9.83;5.43;;;;;;;;;;5070365;28;20104;-62
2023/07/12 03:59:00;;;;;;;;;;;;;;;;;;5071075;28;20024;-60
2023/07/12 04:01:25;;;;;;;9.90;4.63;;;;;;;;;;5066678;28;20306;-61
2023/07/12 04:03:50;;;;;;;;;;;;;;;;;;5053475;28;20029;-62
2023/07/12 04:06:16;;;;;;;9.70;4.70;;;;;;;;;;5051655;28;19999;-62
2023/07/12 04:08:41;;;;;;;7.78;3.85;;;;;;;;;;5050631;28;20013;-62
2023/07/12 04:11:06;;;;;;;;;;;;;;;;;;5065333;28;20016;-61
2023/07/12 04:13:31;;;;;;;7.20;3.42;;;;;;;;;;5060331;28;20399;-62
2023/07/12 04:15:58;;;;;;;7.35;3.70;;;;;;;;;;5057139;28;20484;-62
2023/07/12 04:18:23;;;;;;;6.90;3.40;;;;;;;;;;5050623;28;20017;-61
2023/07/12 04:20:49;;;;;;;6.57;3.65;;;;;;;;;;5067919;28;20036;-60
2023/07/12 04:23:14;;;;;;;;;;;;;;;;;;5066437;28;20463;-61
2023/07/12 04:25:39;;;;;;;7.60;3.80;;;;;;;;;;5054451;28;20294;-62
2023/07/12 04:28:04;;;;;;;;;;;;;;;;;;5067198;28;20020;-60
2023/07/12 04:30:29;;;;;;;8.80;3.80;;;;;;;;;;5069423;28;19947;-61
2023/07/12 04:32:54;;;;;;;7.75;4.07;;;;;;;;;;5069886;28;20422;-61
2023/07/12 04:35:19;;;;;;;;;;;;;;;;;;5069529;28;20047;-63
2023/07/12 04:37:49;;;;;;;7.53;4.25;;;;;;;;;;5070127;28;20380;-62
2023/07/12 04:40:14;;;;;;;7.55;3.75;;;;;;;;;;5061588;28;20021;-63
2023/07/12 04:42:40;;;;;;;12.27;3.77;;;;;;;;;;5052751;28;20430;-62
2023/07/12 04:45:05;;;;;;;;;;;;;;;;;;5063368;28;20043;-61
2023/07/12 04:47:30;;;;;;;8.23;3.72;;;;;;;;;;5070076;28;19908;-62
2023/07/12 04:49:55;;;;;;;9.43;3.43;;;;;;;;;;5054377;28;20075;-61
2023/07/12 04:52:21;;;;;;;;;;;;;;;;;;5056702;28;20020;-61
2023/07/12 04:54:46;;;;;;;11.32;4.70;;;;;;;;;;5062260;28;19924;-61
2023/07/12 04:57:11;;;;;;;;;;;;;;;;;;5058159;28;20555;-62
2023/07/12 04:59:36;;;;;;;9.05;4.57;;;;;;;;;;5070351;28;19966;-61
2023/07/12 05:02:01;;;;;;;;;;;;;;;;;;5065321;28;20021;-61
2023/07/12 05:04:27;;;;;;;7.78;4.60;;;;;;;;;;5050198;28;19913;-62
2023/07/12 05:06:52;;;;;;;;;;;;;;;;;;5060551;28;20028;-62
2023/07/12 05:09:17;;;;;;;8.23;4.53;;;;;;;;;;5061217;28;19919;-63
2023/07/12 05:11:42;;;;;;;;;;;;;;;;;;5056127;28;20056;-62
2023/07/12 05:14:07;;;;;;;8.82;4.35;;;;;;;;;;5054487;28;20461;-61
2023/07/12 05:16:32;;;;;;;7.87;4.70;;;;;;;;;;5050659;28;20021;-62
2023/07/12 05:18:57;;;;;;;8.63;5.03;;;;;;;;;;5052909;28;20090;-61
2023/07/12 05:21:25;;;;;;;;;;;;;;;;;;5057593;28;20028;-62
2023/07/12 05:23:50;;;;;;;9.95;4.60;;;;;;;;;;5067188;28;20007;-62
2023/07/12 05:26:15;;;;;;;11.30;5.27;;;;;;;;;;5056661;28;20182;-61
2023/07/12 05:28:40;;;;;;;9.70;5.00;;;;;;;;;;5066363;28;20027;-62
2023/07/12 05:31:10;;;;;;;9.27;4.55;;;;;;;;;;5065400;28;20031;-61
2023/07/12 05:33:35;;;;;;;11.93;5.85;;;;;;;;;;5052257;28;20029;-61
2023/07/12 05:36:03;;;;;;;9.87;5.20;;;;;;;;;;5054733;28;20028;-61
2023/07/12 05:38:28;;;;;;;9.57;4.88;;;;;;;;;;5069739;28;20016;-61
2023/07/12 05:40:56;;;;;;;9.00;4.70;;;;;;;;;;5054353;28;20404;-62
2023/07/12 05:43:22;;;;;;;9.73;4.93;;;;;;;;;;5060414;28;20100;-64
2023/07/12 05:45:47;;;;;;;9.45;4.65;;;;;;;;;;5061530;28;20073;-61
2023/07/12 05:48:13;;;;;;;9.63;5.00;;;;;;;;;;5060008;28;20020;-63
2023/07/12 05:50:38;;;;;;;;;;;;;;;;;;5060852;28;20033;-61
2023/07/12 05:53:03;;;;;;;11.77;5.00;;;;;;;;;;5064474;28;20363;-60
2023/07/12 05:55:28;;;;;;;;;;;;;;;;;;5054880;28;20477;-61
2023/07/12 05:57:53;;;;;;;9.40;4.75;;;;;;;;;;5056180;28;19912;-63
2023/07/12 06:00:18;;;;;;;;;;;;;;;;;;5064909;28;20022;-63
2023/07/12 06:02:43;;;;;;;9.10;4.93;;;;;;;;;;5066066;28;19915;-63
2023/07/12 06:05:10;;;;;;;;;;;;;;;;;;5072904;28;20016;-63
2023/07/12 06:07:35;;;;;;;7.63;4.55;;;;;;;;;;5072274;28;19944;-64
2023/07/12 06:10:00;;;;;;;;;;;;;;;;;;5073154;28;20051;-64
2023/07/12 06:12:25;;;;;;;10.35;4.38;;;;;;;;;;5071835;28;19908;-63
2023/07/12 06:14:50;;;;;;;;;;;;;;;;;;5067276;28;20029;-62
2023/07/12 06:17:16;;;;;;;9.52;4.40;;;;;;;;;;5072286;28;20368;-64
2023/07/12 06:19:41;;;;;;;;;;;;;;;;;;5071775;28;20023;-62
2023/07/12 06:22:06;;;;;;;12.40;4.75;;;;;;;;;;5066425;28;20352;-60
2023/07/12 06:24:31;;;;;;;;;;;;;;;;;;5069210;28;20031;-62
2023/07/12 06:26:56;;;;;;;9.48;4.30;;;;;;;;;;5071868;28;19915;-62
2023/07/12 06:29:21;;;;;;;;;;;;;;;;;;5067293;28;20020;-61
2023/07/12 06:31:46;;;;;;;6.75;3.80;;;;;;;;;;5068831;28;20283;-61
2023/07/12 06:34:12;;;;;;;;;;;;;;;;;;5071581;28;20025;-62
2023/07/12 06:36:37;;;;;;;8.02;4.20;;;;;;;;;;5061700;28;19916;-63
2023/07/12 06:39:02;;;;;;;;;;;;;;;;;;5069974;28;20483;-63
2023/07/12 06:41:27;;;;;;;8.53;3.80;;;;;;;;;;5071887;28;19905;-63
2023/07/12 06:43:52;;;;;;;;;;;;;;;;;;5062369;28;20017;-63
2023/07/12 06:46:17;;;;;;;10.45;4.13;;;;;;;;;;5051543;28;19908;-61
2023/07/12 06:48:43;;;;;;;;;;;;;;;;;;5052247;28;20083;-61
2023/07/12 06:51:08;;;;;;;7.82;3.15;;;;;;;;;;5056810;28;19912;-61
2023/07/12 06:53:33;;;;;;;;;;;;;;;;;;5067965;28;20104;-63
2023/07/12 06:55:58;;;;;;;8.00;2.57;;;;;;;;;;5063760;28;19920;-61
2023/07/12 06:58:23;;;;;;;6.85;2.35;;;;;;;;;;5053986;28;20008;-62
2023/07/12 07:00:48;;;;;;;;;;;;;;;;;;5056292;28;20021;-61
2023/07/12 07:03:14;;;;;;;4.80;2.17;;;;;;;;;;5064288;28;20007;-60
2023/07/12 07:05:39;;;;;;;;;;;;;;;;;;5058941;28;20024;-61
2023/07/12 07:08:05;;;;;;;4.87;1.33;;;;;;;;;;5066536;28;19909;-60
2023/07/12 07:10:30;;;;;;;;;;;;;;;;;;5068907;28;20020;-60
2023/07/12 07:12:55;;;;;;;3.47;1.20;;;;;;;;;;5062728;28;19909;-60
2023/07/12 07:15:20;;;;;;;;;;;;;;;;;;5060794;28;20484;-61
2023/07/12 07:17:45;;;;;;;4.05;1.50;;;;;;;;;;5063883;28;19908;-61
2023/07/12 07:20:10;;;;;;;;;;;;;;;;;;5055530;28;20091;-61
2023/07/12 07:22:35;;;;;;;4.88;1.20;;;;;;;;;;5064510;28;19915;-60
2023/07/12 07:25:01;;;;;;;;;;;;;;;;;;5065381;28;20021;-62
2023/07/12 07:27:26;;;;;;;4.10;1.40;;;;;;;;;;5068863;28;20063;-59
2023/07/12 07:29:51;;;;;;;;;;;;;;;;;;5071282;28;20020;-61
2023/07/12 07:32:16;;;;;;;3.78;1.20;;;;;;;;;;5070750;28;19908;-60
2023/07/12 07:34:42;;;;;;;3.40;1.10;;;;;;;;;;5070388;28;20021;-62
2023/07/12 07:37:07;;;;;;;;;;;;;;;;;;5071466;28;20392;-61
2023/07/12 07:39:32;;;;;;;4.10;1.03;;;;;;;;;;5069883;28;20010;-63
2023/07/12 07:41:57;;;;;;;4.28;1.30;;;;;;;;;;5070429;28;20106;-62
2023/07/12 07:44:23;;;;;;;;;;;;;;;;;;5067635;28;20050;-62
2023/07/12 07:46:48;;;;;;;4.28;1.17;;;;;;;;;;5070844;28;20400;-62
2023/07/12 07:49:13;;;;;;;5.03;1.25;;;;;;;;;;5070676;28;20017;-61
2023/07/12 07:51:38;;;;;;;;;;;;;;;;;;5071464;28;20020;-61
2023/07/12 07:54:04;;;;;;;3.80;1.20;;;;;;;;;;5069922;28;19916;-63
2023/07/12 07:56:29;;;;;;;2.75;1.02;;;;;;;;;;5070693;28;20354;-62
2023/07/12 07:58:54;;;;;;;;;;;;;;;;;;5066587;28;20044;-61
2023/07/12 08:01:19;;;;;;;4.65;1.20;;;;;;;;;;5070267;28;19957;-62
2023/07/12 08:03:44;;;;;;;;;;;;;;;;;;5070469;28;20024;-61
2023/07/12 08:06:10;;;;;;;3.80;1.00;;;;;;;;;;5070766;28;19905;-61
2023/07/12 08:08:35;;;;;;;;;;;;;;;;;;5071394;28;20482;-61
2023/07/12 08:11:04;;;;;;;3.73;1.30;;;;;;;;;;5070717;28;20364;-60
2023/07/12 08:13:29;;;;;;;4.60;1.38;;;;;;;;;;5069531;28;20472;-60
2023/07/12 08:15:54;;;;;;;;;;;;;;;;;;5068212;28;20040;-62
2023/07/12 08:18:20;;;;;;;3.75;1.10;;;;;;;;;;5070565;28;20014;-61
2023/07/12 08:20:45;;;;;;;;;;;;;;;;;;5071648;28;20224;-61
2023/07/12 08:23:10;;;;;;;3.75;1.10;;;;;;;;;;5066547;28;20326;-62
2023/07/12 08:25:35;;;;;;;3.38;1.10;;;;;;;;;;5070751;28;20020;-61
2023/07/12 08:28:00;;;;;;;3.53;1.07;;;;;;;;;;5071417;28;20046;-61
2023/07/12 08:30:26;;;;;;;3.23;1.10;;;;;;;;;;5071416;28;20412;-62
2023/07/12 08:32:52;;;;;;;;;;;;;;;;;;5066943;28;20376;-62
2023/07/12 08:35:17;;;;;;;5.20;1.20;;;;;;;;;;5056775;28;19924;-62
2023/07/12 08:37:43;;;;;;;;;;;;;;;;;;5059884;28;20070;-62
2023/07/12 08:40:11;;;;;;;3.90;1.25;;;;;;;;;;5064763;28;19908;-62
2023/07/12 08:42:38;;;;;;;4.00;1.25;;;;;;;;;;5046220;28;21875;-62
2023/07/12 08:45:14;;;;;;;5.47;1.20;;;;;;;;;;5064576;28;20035;-61
2023/07/12 08:47:40;;;;;;;4.75;1.33;;;;;;;;;;5060820;28;20399;-62
2023/07/12 08:50:05;;;;;;;;;;;;;;;;;;5070454;28;20020;-62
2023/07/12 08:52:32;;;;;;;3.70;1.40;;;;;;;;;;5069974;28;20287;-62
2023/07/12 08:55:00;;;;;;;5.03;1.33;;;;;;;;;;5070503;28;20060;-62
2023/07/12 08:57:27;;;;;;;3.78;1.20;;;;;;;;;;5071722;28;20032;-62
2023/07/12 09:00:02;;;;;;;3.33;1.13;;;;;;;;;;5073831;28;20025;-62
2023/07/12 09:02:27;;;;;;;4.05;1.40;;;;;;;;;;5073178;28;20028;-62
2023/07/12 09:04:52;;;;;;;;;;;;;;;;;;5069940;28;20029;-62
2023/07/12 09:07:26;;;;;;;5.80;1.60;;;;;;;;;;5073799;28;20405;-61
2023/07/12 09:09:54;;;;;;;4.30;1.45;;;;;;;;;;5074136;28;20035;-62
2023/07/12 09:12:23;;;;;;;3.42;1.60;;;;;;;;;;5073252;28;20025;-61
2023/07/12 09:14:51;;;;;;;3.80;1.33;;;;;;;;;;5074478;28;20056;-60
2023/07/12 09:17:23;;;;;;;3.70;1.42;;;;;;;;;;5076779;28;20025;-62
2023/07/12 09:19:50;;;;;;;3.78;1.40;;;;;;;;;;5069704;28;20487;-62
2023/07/12 09:22:16;;;;;;;6.43;1.60;;;;;;;;;;5081611;28;20054;-62
2023/07/12 09:24:41;;;;;;;;;;;;;;;;;;5080056;28;20024;-61
2023/07/12 09:27:14;;;;;;;4.20;1.70;;;;;;;;;;5075118;28;20333;-61
2023/07/12 09:29:39;;;;;;;3.95;1.55;;;;;;;;;;5063836;28;20024;-61
2023/07/12 09:32:04;;;;;;;;;;;;;;;;;;5073536;28;20025;-60
2023/07/12 09:34:39;;;;;;;4.28;1.70;;;;;;;;;;5072883;28;20027;-61
2023/07/12 09:37:11;;;;;;;4.10;1.83;;;;;;;;;;5069984;28;20017;-62
2023/07/12 09:39:37;;;;;;;5.38;2.17;;;;;;;;;;5068206;28;20404;-61
2023/07/12 09:42:02;;;;;;;5.10;2.10;;;;;;;;;;5072984;28;20020;-61
2023/07/12 09:44:27;;;;;;;5.37;2.00;;;;;;;;;;5072575;28;20067;-63
2023/07/12 09:47:19;;;;;;;6.55;2.03;;;;;;;;;;5073027;28;21028;-62
2023/07/12 09:49:56;;;;;;;5.22;1.90;;;;;;;;;;5064487;28;20029;-62
2023/07/12 09:52:30;;;;;;;5.65;2.17;;;;;;;;;;5072233;28;20043;-63
2023/07/12 09:54:57;;;;;;;4.95;2.10;;;;;;;;;;5072045;28;20107;-62
2023/07/12 09:57:40;;;;;;;5.60;2.20;;;;;;;;;;5070707;28;20027;-62
2023/07/12 10:00:24;;;;;;;6.15;1.95;;;;;;;;;;5052584;28;20021;-62
2023/07/12 10:03:10;;;;;;;5.25;2.05;;;;;;;;;;5051635;28;20036;-63
2023/07/12 10:05:35;;;;;;;4.05;2.10;;;;;;;;;;5052618;28;20029;-62
2023/07/12 10:08:07;;;;;;;7.17;2.10;;;;;;;;;;5056381;28;20420;-62
2023/07/12 10:10:45;;;;;;;4.97;2.00;;;;;;;;;;5072353;28;20028;-63
2023/07/12 10:13:19;;;;;;;5.78;2.33;;;;;;;;;;5070122;28;20089;-62
2023/07/12 10:15:45;;;;;;;5.63;2.25;;;;;;;;;;5052538;28;20064;-63
2023/07/12 10:18:15;;;;;;;5.40;2.20;;;;;;;;;;5052480;28;20059;-62
2023/07/12 10:20:41;;;;;;;5.70;2.30;;;;;;;;;;5052268;28;20051;-63
2023/07/12 10:23:10;;;;;;;5.10;2.20;;;;;;;;;;5062534;28;20593;-60
2023/07/12 10:25:37;;;;;;;4.85;2.28;;;;;;;;;;5071781;28;20115;-62
2023/07/12 10:28:05;;;;;;;4.90;2.22;;;;;;;;;;5072108;28;20392;-62
2023/07/12 10:30:32;;;;;;;8.13;2.50;;;;;;;;;;5072112;28;20077;-63
2023/07/12 10:33:10;;;;;;;6.15;2.30;;;;;;;;;;5071485;28;20031;-61
2023/07/12 10:35:41;;;;;;;7.22;2.30;;;;;;;;;;5070791;28;20533;-62
2023/07/12 10:38:12;;;;;;;6.03;2.45;;;;;;;;;;5071334;28;20050;-61
2023/07/12 10:40:40;;;;;;;6.28;2.30;;;;;;;;;;5071854;28;20054;-61
2023/07/12 10:43:10;;;;;;;5.78;2.67;;;;;;;;;;5071291;28;20389;-63
2023/07/12 10:45:37;;;;;;;6.10;2.35;;;;;;;;;;5071819;28;20028;-61
2023/07/12 10:48:02;;;;;;;5.47;2.42;;;;;;;;;;5071582;28;20020;-62
2023/07/12 10:50:34;;;;;;;4.72;2.30;;;;;;;;;;5066872;28;20020;-61
2023/07/12 10:53:02;;;;;;;6.70;2.40;;;;;;;;;;5063145;28;20521;-62
2023/07/12 10:55:36;;;;;;;7.00;2.95;;;;;;;;;;5068455;28;20099;-62
2023/07/12 10:58:23;;;;;;;5.45;2.47;;;;;;;;;;5071600;28;20487;-63
2023/07/12 11:00:56;;;;;;;6.18;2.65;;;;;;;;;;5071318;28;20017;-62
2023/07/12 11:03:41;;;;;;;6.82;2.78;;;;;;;;;;5060683;28;20684;-62
2023/07/12 11:06:21;;;;;;;5.57;2.85;;;;;;;;;;5059561;28;20033;-61
2023/07/12 11:08:54;;;;;;;5.55;2.60;;;;;;;;;;5078695;28;20036;-62
2023/07/12 11:11:19;;;;;;;5.97;2.47;;;;;;;;;;5066198;28;20017;-62
2023/07/12 11:13:46;;;;;;;6.88;2.67;;;;;;;;;;5070748;28;20016;-63
2023/07/12 11:16:15;;;;;;;8.50;2.70;;;;;;;;;;5067837;28;20491;-63
2023/07/12 11:18:47;;;;;;;14.18;4.55;;;;;;;;;;5062510;28;20409;-64
2023/07/12 11:21:39;;;;;;;14.52;4.05;;;;;;;;;;5073788;28;20012;-63
2023/07/12 11:24:20;;;;;;;10.70;3.80;;;;;;;;;;5062437;28;20020;-62
2023/07/12 11:26:52;;;;;;;9.07;3.25;;;;;;;;;;5056392;28;20020;-62
2023/07/12 11:29:23;;;;;;;8.20;3.13;;;;;;;;;;5066436;28;20031;-61
2023/07/12 11:31:50;;;;;;;8.55;3.50;;;;;;;;;;5073902;28;20020;-60
2023/07/12 11:34:18;;;;;;;6.95;3.33;;;;;;;;;;5072435;28;20029;-63
2023/07/12 11:36:47;;;;;;;8.80;3.65;;;;;;;;;;5068461;28;20045;-61
2023/07/12 11:39:18;;;;;;;7.40;3.38;;;;;;;;;;5077349;28;20024;-61
2023/07/12 11:42:12;;;;;;;8.50;3.72;;;;;;;;;;5070787;28;20020;-60
2023/07/12 11:44:37;;;;;;;8.73;3.80;;;;;;;;;;5069168;28;20492;-62
2023/07/12 11:47:03;;;;;;;8.38;4.10;;;;;;;;;;5069506;28;20024;-60
2023/07/12 11:49:29;;;;;;;9.03;4.23;;;;;;;;;;5065197;28;20400;-62
2023/07/12 11:51:56;;;;;;;10.27;4.72;;;;;;;;;;5069923;28;20435;-63
2023/07/12 11:54:23;;;;;;;8.18;4.28;;;;;;;;;;5069862;28;20078;-61
2023/07/12 11:56:50;;;;;;;7.15;4.00;;;;;;;;;;5067352;28;20024;-61
2023/07/12 11:59:16;;;;;;;7.97;3.95;;;;;;;;;;5068829;28;20062;-61
2023/07/12 12:01:42;;;;;;;7.28;3.80;;;;;;;;;;5076892;28;20482;-61
2023/07/12 12:04:07;;;;;;;8.57;3.70;;;;;;;;;;5069871;28;20016;-61
2023/07/12 12:06:33;;;;;;;;;;;;;;;;;;5075342;28;20016;-61
2023/07/12 12:08:58;;;;;;;7.75;3.85;;;;;;;;;;5066047;28;19965;-62
2023/07/12 12:11:27;;;;;;;7.22;3.58;;;;;;;;;;5070339;28;20082;-60
2023/07/12 12:13:53;;;;;;;7.43;4.28;;;;;;;;;;5061860;28;20484;-63
2023/07/12 12:16:20;;;;;;;8.75;4.40;;;;;;;;;;5070571;28;20055;-63
2023/07/12 12:18:49;;;;;;;9.82;4.20;;;;;;;;;;5072372;28;20016;-62
2023/07/12 12:21:16;;;;;;;7.40;3.92;;;;;;;;;;5066768;28;20027;-63
2023/07/12 12:23:41;;;;;;;;;;;;;;;;;;5065704;28;20530;-63
2023/07/12 12:26:32;;;;;;;7.45;4.00;;;;;;;;;;5063744;28;20368;-62
2023/07/12 12:28:59;;;;;;;10.20;4.28;;;;;;;;;;5071014;28;20065;-62
2023/07/12 12:31:26;;;;;;;8.40;4.07;;;;;;;;;;5067030;28;20472;-62
2023/07/12 12:33:58;;;;;;;8.25;3.72;;;;;;;;;;5072396;28;20077;-62
2023/07/12 12:36:24;;;;;;;7.53;4.22;;;;;;;;;;5063888;28;20025;-63
2023/07/12 12:38:57;;;;;;;8.68;4.30;;;;;;;;;;5065681;28;20040;-62
2023/07/12 12:41:22;;;;;;;7.90;4.30;;;;;;;;;;5071274;28;20435;-61
2023/07/12 12:43:55;;;;;;;6.83;4.07;;;;;;;;;;5070737;28;20012;-62
2023/07/12 12:46:20;;;;;;;8.25;4.20;;;;;;;;;;5073947;28;20031;-62
2023/07/12 12:48:45;;;;;;;;;;;;;;;;;;5074206;28;20021;-62
2023/07/12 12:51:11;;;;;;;8.02;4.22;;;;;;;;;;5069933;28;19905;-62
2023/07/12 12:53:36;;;;;;;6.95;4.10;;;;;;;;;;5072834;28;20121;-61
2023/07/12 12:56:01;;;;;;;8.18;4.82;;;;;;;;;;5075578;28;20032;-62
2023/07/12 12:58:26;;;;;;;;;;;;;;;;;;5077337;28;20071;-63
2023/07/12 13:00:52;;;;;;;7.82;4.65;;;;;;;;;;5079950;28;20003;-62
2023/07/12 13:03:17;;;;;;;;;;;;;;;;;;5075560;28;20472;-62
2023/07/12 13:05:42;;;;;;;8.02;4.20;;;;;;;;;;5074968;28;20405;-62
2023/07/12 13:08:07;;;;;;;;;;;;;;;;;;5071383;28;20032;-62
2023/07/12 13:10:32;;;;;;;6.65;4.13;;;;;;;;;;5081272;28;20557;-62
2023/07/12 13:12:57;;;;;;;;;;;;;;;;;;5073214;28;20016;-62
2023/07/12 13:15:22;;;;;;;7.43;4.30;;;;;;;;;;5070601;28;19995;-61
2023/07/12 13:17:47;;;;;;;;;;;;;;;;;;5067025;28;20043;-62
2023/07/12 13:20:14;;;;;;;8.48;4.38;;;;;;;;;;5066519;28;19908;-62
2023/07/12 13:22:39;;;;;;;8.80;3.80;;;;;;;;;;5076428;28;20767;-62
2023/07/12 13:25:04;;;;;;;;;;;;;;;;;;5071285;28;19997;-61
2023/07/12 13:27:33;;;;;;;6.13;3.90;;;;;;;;;;5074348;28;19958;-63
2023/07/12 13:29:59;;;;;;;7.53;3.92;;;;;;;;;;5071736;28;20051;-61
2023/07/12 13:32:24;;;;;;;;;;;;;;;;;;5079873;28;20043;-62
2023/07/12 13:34:50;;;;;;;7.50;3.90;;;;;;;;;;5066419;28;19916;-62
2023/07/12 13:37:28;;;;;;;6.18;3.63;;;;;;;;;;5065349;28;20023;-63
2023/07/12 13:39:53;;;;;;;8.75;3.80;;;;;;;;;;5073285;28;20392;-60
2023/07/12 13:42:18;;;;;;;;;;;;;;;;;;5069320;28;20952;-61
2023/07/12 13:44:43;;;;;;;9.43;4.25;;;;;;;;;;5060889;28;19916;-62
2023/07/12 13:47:09;;;;;;;;;;;;;;;;;;5071262;28;20098;-61
2023/07/12 13:49:34;;;;;;;7.00;4.03;;;;;;;;;;5066621;28;19909;-61
2023/07/12 13:51:59;;;;;;;;;;;;;;;;;;5073331;28;20439;-62
2023/07/12 13:54:24;;;;;;;8.18;4.10;;;;;;;;;;5070528;28;19923;-62
2023/07/12 13:56:49;;;;;;;;;;;;;;;;;;5056900;28;20396;-60
2023/07/12 13:59:14;;;;;;;7.25;3.65;;;;;;;;;;5052668;28;19909;-61
2023/07/12 14:01:40;;;;;;;6.75;3.47;;;;;;;;;;5063721;28;20017;-60
2023/07/12 14:04:05;;;;;;;;;;;;;;;;;;5070594;28;20020;-60
2023/07/12 14:06:30;;;;;;;6.15;2.90;;;;;;;;;;5063237;28;19932;-62
2023/07/12 14:08:56;;;;;;;6.35;2.88;;;;;;;;;;5066931;28;20036;-61
2023/07/12 14:11:21;;;;;;;6.40;2.88;;;;;;;;;;5072768;28;20059;-61
2023/07/12 14:13:46;;;;;;;;;;;;;;;;;;5066445;28;20024;-60
2023/07/12 14:16:12;;;;;;;4.82;2.60;;;;;;;;;;5062429;28;19916;-61
2023/07/12 14:18:37;;;;;;;;;;;;;;;;;;5070967;28;20013;-62
2023/07/12 14:21:02;;;;;;;5.50;2.40;;;;;;;;;;5068159;28;19908;-61
2023/07/12 14:23:27;;;;;;;8.07;2.70;;;;;;;;;;5069509;28;20066;-61
2023/07/12 14:25:52;;;;;;;;;;;;;;;;;;5068176;28;20031;-62
2023/07/12 14:28:18;;;;;;;6.53;2.30;;;;;;;;;;5066604;28;20037;-63
2023/07/12 14:30:43;;;;;;;7.07;2.55;;;;;;;;;;5058413;28;20372;-60
2023/07/12 14:33:09;;;;;;;;;;;;;;;;;;5062933;28;20357;-62
2023/07/12 14:35:35;;;;;;;4.55;1.85;;;;;;;;;;5071444;28;19963;-61
2023/07/12 14:38:00;;;;;;;4.25;1.70;;;;;;;;;;5066082;28;20020;-61
2023/07/12 14:40:28;;;;;;;;;;;;;;;;;;5052540;28;20506;-61
2023/07/12 14:42:54;;;;;;;5.90;1.83;;;;;;;;;;5057807;28;20001;-60
2023/07/12 14:45:19;;;;;;;;;;;;;;;;;;5070758;28;20433;-61
2023/07/12 14:47:44;;;;;;;4.45;1.60;;;;;;;;;;5062041;28;19912;-63
2023/07/12 14:50:10;;;;;;;4.70;1.60;;;;;;;;;;5070221;28;20083;-59
2023/07/12 14:52:36;;;;;;;5.32;1.60;;;;;;;;;;5067904;28;20021;-61
2023/07/12 14:55:01;;;;;;;;;;;;;;;;;;5072051;28;20033;-61
2023/07/12 14:57:27;;;;;;;4.72;1.77;;;;;;;;;;5054486;28;20338;-60
2023/07/12 14:59:52;;;;;;;5.80;1.60;;;;;;;;;;5062841;28;20025;-61
2023/07/12 15:02:17;;;;;;;;;;;;;;;;;;5050311;28;20477;-59
2023/07/12 15:04:42;;;;;;;5.70;1.63;;;;;;;;;;5063507;28;19909;-60
2023/07/12 15:07:07;;;;;;;;;;;;;;;;;;5071927;28;20031;-60